Time;durP1;ratioP1;P1;durP2;ratioP2;P2;SDS_P1;SDS_P2;PMS_P1;PMS_P2;Temp;Humidity;BMP_temperature;BMP_pressure;BME280_temperature;BME280_humidity;BME280_pressure;Samples;Min_cycle;Max_cycle;Signal;HPM_P1;HPM_P2
2021/11/23 00:01:20;;;;;;;;;;;2.10;93.20;;;;;;4840979;29;20496;-74
2021/11/23 00:03:48;;;;;;;38.78;20.75;;;2.10;93.20;;;;;;4825144;29;20409;-74
2021/11/23 00:06:16;;;;;;;52.60;26.48;;;2.10;93.20;;;;;;4827886;29;20050;-74
2021/11/23 00:08:44;;;;;;;53.75;27.85;;;2.10;93.30;;;;;;4824261;29;20046;-74
2021/11/23 00:11:12;;;;;;;43.50;27.45;;;2.20;93.50;;;;;;4841903;29;20060;-74
2021/11/23 00:13:39;;;;;;;46.05;26.30;;;2.30;93.50;;;;;;4841542;29;20050;-74
2021/11/23 00:16:07;;;;;;;48.90;25.80;;;2.40;93.50;;;;;;4841371;29;20450;-74
2021/11/23 00:18:35;;;;;;;44.05;25.27;;;2.60;93.40;;;;;;4841479;29;20049;-74
2021/11/23 00:21:03;;;;;;;41.92;24.08;;;2.70;93.30;;;;;;4841188;29;20416;-74
2021/11/23 00:23:30;;;;;;;39.05;24.00;;;2.70;93.20;;;;;;4841143;29;20489;-75
2021/11/23 00:25:59;;;;;;;35.70;22.98;;;2.80;93.20;;;;;;4841218;29;20050;-75
2021/11/23 00:28:27;;;;;;;37.13;22.88;;;2.80;93.20;;;;;;4841039;29;20385;-74
2021/11/23 00:30:57;;;;;;;40.42;23.70;;;2.80;93.10;;;;;;4839562;29;20062;-73
2021/11/23 00:33:30;;;;;;;40.67;23.10;;;2.80;93.10;;;;;;4840916;29;20516;-73
2021/11/23 00:35:58;;;;;;;37.92;22.48;;;2.80;93.20;;;;;;4839648;29;20057;-74
2021/11/23 00:38:26;;;;;;;35.92;21.00;;;2.80;93.20;;;;;;4841261;29;20505;-73
2021/11/23 00:40:54;;;;;;;33.15;20.42;;;2.80;93.20;;;;;;4840704;29;20057;-74
2021/11/23 00:43:21;;;;;;;36.50;21.50;;;2.80;93.20;;;;;;4841067;29;20058;-73
2021/11/23 00:45:49;;;;;;;38.88;23.50;;;2.80;93.20;;;;;;4823880;29;20050;-73
2021/11/23 00:48:16;;;;;;;44.38;22.95;;;2.80;93.30;;;;;;4840216;29;20496;-74
2021/11/23 00:50:49;;;;;;;38.28;22.15;;;2.80;93.40;;;;;;4834207;29;20053;-73
2021/11/23 00:53:17;;;;;;;41.40;22.30;;;2.80;93.40;;;;;;4806174;29;20066;-73
2021/11/23 00:55:45;;;;;;;40.83;23.85;;;2.80;93.40;;;;;;4830743;29;20057;-73
2021/11/23 00:58:13;;;;;;;37.85;20.67;;;2.80;93.40;;;;;;4840299;29;20504;-73
2021/11/23 01:00:41;;;;;;;38.25;20.80;;;2.80;93.30;;;;;;4840422;29;20064;-73
2021/11/23 01:03:08;;;;;;;45.03;21.67;;;2.80;93.40;;;;;;4840318;29;20413;-73
2021/11/23 01:05:36;;;;;;;39.10;21.05;;;2.80;93.40;;;;;;4840512;29;20603;-73
2021/11/23 01:08:05;;;;;;;35.08;20.17;;;2.80;93.40;;;;;;4840323;29;20081;-74
2021/11/23 01:10:33;;;;;;;37.25;20.88;;;2.80;93.40;;;;;;4840246;29;20046;-73
2021/11/23 01:13:02;;;;;;;39.38;22.83;;;2.80;93.30;;;;;;4823329;29;20057;-74
2021/11/23 01:15:29;;;;;;;36.45;22.52;;;2.80;93.40;;;;;;4840222;29;20508;-73
2021/11/23 01:17:58;;;;;;;39.13;23.00;;;2.80;93.40;;;;;;4839225;29;20049;-73
2021/11/23 01:20:26;;;;;;;39.92;23.13;;;2.80;93.40;;;;;;4839954;29;20088;-73
2021/11/23 01:22:54;;;;;;;38.58;21.45;;;2.80;93.30;;;;;;4840227;29;20053;-73
2021/11/23 01:25:21;;;;;;;43.03;21.73;;;2.80;93.30;;;;;;4839870;29;20054;-74
2021/11/23 01:27:49;;;;;;;47.42;24.98;;;2.80;93.30;;;;;;4840086;29;20050;-74
2021/11/23 01:30:17;;;;;;;41.88;22.02;;;2.80;93.30;;;;;;4839667;29;20057;-76
2021/11/23 01:32:45;;;;;;;42.90;22.42;;;2.80;93.30;;;;;;4839645;29;20113;-76
2021/11/23 01:35:13;;;;;;;38.65;24.27;;;2.80;93.30;;;;;;4823843;29;20061;-75
2021/11/23 01:37:43;;;;;;;41.75;24.60;;;2.80;93.30;;;;;;4840381;29;20049;-76
2021/11/23 01:40:11;;;;;;;34.90;23.20;;;2.80;93.30;;;;;;4822406;29;20057;-73
2021/11/23 01:42:39;;;;;;;39.70;22.90;;;2.90;93.30;;;;;;4839765;29;20062;-73
2021/11/23 01:45:08;;;;;;;32.22;20.13;;;2.90;93.20;;;;;;4824254;29;20062;-73
2021/11/23 01:47:36;;;;;;;33.75;20.85;;;2.90;93.20;;;;;;4839904;29;20050;-74
2021/11/23 01:50:06;;;;;;;36.83;22.33;;;2.80;93.10;;;;;;4839713;29;20507;-72
2021/11/23 01:52:34;;;;;;;39.88;25.27;;;2.80;93.20;;;;;;4840090;29;20046;-72
2021/11/23 01:55:04;;;;;;;47.38;26.65;;;2.80;93.20;;;;;;4839386;29;20121;-72
2021/11/23 01:57:33;;;;;;;48.15;27.10;;;2.90;93.30;;;;;;4840257;29;20042;-72
2021/11/23 02:00:04;;;;;;;38.83;26.77;;;3.00;93.30;;;;;;4841667;29;20061;-72
2021/11/23 02:02:42;;;;;;;40.95;26.83;;;3.00;93.30;;;;;;4843685;29;20061;-72
2021/11/23 02:05:11;;;;;;;37.78;25.65;;;3.10;93.30;;;;;;4843033;29;20057;-72
2021/11/23 02:07:40;;;;;;;33.65;23.63;;;3.20;93.30;;;;;;4843146;29;20061;-72
2021/11/23 02:10:09;;;;;;;33.05;22.10;;;3.30;93.30;;;;;;4843055;29;20519;-72
2021/11/23 02:12:38;;;;;;;36.38;20.88;;;3.30;93.10;;;;;;4843290;29;20061;-72
2021/11/23 02:15:08;;;;;;;37.55;22.88;;;3.40;93.10;;;;;;4826193;29;20053;-72
2021/11/23 02:17:35;;;;;;;33.90;22.20;;;3.40;93.00;;;;;;4847058;29;20046;-72
2021/11/23 02:20:09;;;;;;;30.70;21.52;;;3.40;93.00;;;;;;4840805;29;20507;-72
2021/11/23 02:22:37;;;;;;;34.97;21.90;;;3.50;93.00;;;;;;4846893;29;20041;-72
2021/11/23 02:25:06;;;;;;;36.53;22.13;;;3.50;93.00;;;;;;4851442;29;20049;-73
2021/11/23 02:27:34;;;;;;;40.72;23.88;;;3.50;93.00;;;;;;4849599;29;20485;-73
2021/11/23 02:30:03;;;;;;;36.88;24.02;;;3.50;93.00;;;;;;4841366;29;20389;-75
2021/11/23 02:32:41;;;;;;;38.88;22.88;;;3.50;93.00;;;;;;4826281;29;20073;-73
2021/11/23 02:35:10;;;;;;;30.45;21.95;;;3.50;93.00;;;;;;4843036;29;20045;-73
2021/11/23 02:37:49;;;;;;;35.55;22.15;;;3.50;93.00;;;;;;4843306;29;20374;-74
2021/11/23 02:40:19;;;;;;;37.63;23.35;;;3.50;93.00;;;;;;4843302;29;20057;-73
2021/11/23 02:42:48;;;;;;;34.80;22.63;;;3.50;93.10;;;;;;4824817;29;20463;-75
2021/11/23 02:45:19;;;;;;;32.53;22.73;;;3.50;93.10;;;;;;4823453;29;20062;-73
2021/11/23 02:47:47;;;;;;;37.60;22.98;;;3.50;93.00;;;;;;4827672;29;20057;-73
2021/11/23 02:50:20;;;;;;;36.33;22.40;;;3.50;93.00;;;;;;4842947;29;20057;-74
2021/11/23 02:52:49;;;;;;;39.17;23.42;;;3.50;93.00;;;;;;4843214;29;20057;-73
2021/11/23 02:55:20;;;;;;;37.35;24.05;;;3.50;93.10;;;;;;4825100;29;20057;-73
2021/11/23 02:57:48;;;;;;;36.80;23.48;;;3.50;93.10;;;;;;4841171;29;20509;-73
2021/11/23 03:00:20;;;;;;;33.20;23.15;;;3.50;93.00;;;;;;4824458;29;20050;-75
2021/11/23 03:02:49;;;;;;;28.92;21.58;;;3.60;93.10;;;;;;4840054;29;20560;-74
2021/11/23 03:05:19;;;;;;;31.42;21.35;;;3.60;93.10;;;;;;4840466;29;20116;-74
2021/11/23 03:07:48;;;;;;;26.27;19.98;;;3.70;93.10;;;;;;4824004;29;20133;-72
2021/11/23 03:10:17;;;;;;;30.73;19.25;;;3.80;93.10;;;;;;4841396;29;20073;-72
2021/11/23 03:12:47;;;;;;;28.85;18.02;;;3.80;93.00;;;;;;4840910;29;20396;-72
2021/11/23 03:15:16;;;;;;;27.13;18.13;;;3.90;93.00;;;;;;4840540;29;20069;-72
2021/11/23 03:17:44;;;;;;;29.27;18.13;;;4.00;92.90;;;;;;4840282;29;20484;-72
2021/11/23 03:20:15;;;;;;;30.15;18.17;;;4.10;92.90;;;;;;4823786;29;20054;-72
2021/11/23 03:22:42;;;;;;;24.77;16.65;;;4.10;92.80;;;;;;4824208;29;20102;-72
2021/11/23 03:25:11;;;;;;;27.98;18.15;;;4.20;92.80;;;;;;4839961;29;20082;-73
2021/11/23 03:27:39;;;;;;;23.95;17.15;;;4.20;92.80;;;;;;4830881;29;20045;-72
2021/11/23 03:30:08;;;;;;;22.13;17.88;;;4.20;92.70;;;;;;4842195;29;20137;-72
2021/11/23 03:32:37;;;;;;;25.48;17.85;;;4.20;92.70;;;;;;4842035;29;20058;-72
2021/11/23 03:35:05;;;;;;;30.02;18.92;;;4.20;92.80;;;;;;4842027;29;20077;-73
2021/11/23 03:37:33;;;;;;;29.38;18.65;;;4.20;92.70;;;;;;4841807;29;20101;-72
2021/11/23 03:40:02;;;;;;;29.63;19.05;;;4.20;92.70;;;;;;4841324;29;20069;-73
2021/11/23 03:42:30;;;;;;;28.58;20.15;;;4.20;92.70;;;;;;4825311;29;20061;-73
2021/11/23 03:44:58;;;;;;;35.78;20.05;;;4.30;92.70;;;;;;4841957;29;20420;-73
2021/11/23 03:47:28;;;;;;;31.85;19.98;;;4.20;92.70;;;;;;4841466;29;20054;-72
2021/11/23 03:49:57;;;;;;;33.38;19.98;;;4.20;92.80;;;;;;4825611;29;20065;-73
2021/11/23 03:52:25;;;;;;;27.80;19.95;;;4.20;92.80;;;;;;4842101;29;20054;-74
2021/11/23 03:54:54;;;;;;;29.73;20.15;;;4.30;92.80;;;;;;4841500;29;20622;-74
2021/11/23 03:57:22;;;;;;;30.35;19.80;;;4.30;92.80;;;;;;4840806;29;20069;-74
2021/11/23 03:59:50;;;;;;;36.13;21.20;;;4.30;92.80;;;;;;4841589;29;20046;-74
2021/11/23 04:02:21;;;;;;;35.55;20.90;;;4.30;92.80;;;;;;4840942;29;20512;-74
2021/11/23 04:04:48;;;;;;;28.33;20.05;;;4.30;92.70;;;;;;4825110;29;20062;-73
2021/11/23 04:07:16;;;;;;;31.17;19.65;;;4.40;92.70;;;;;;4841529;29;20390;-72
2021/11/23 04:09:44;;;;;;;34.33;19.75;;;4.40;92.70;;;;;;4841120;29;20046;-72
2021/11/23 04:12:12;;;;;;;25.88;19.80;;;4.50;92.70;;;;;;4840419;29;20054;-72
2021/11/23 04:14:41;;;;;;;30.20;19.65;;;4.50;92.70;;;;;;4825065;29;20062;-72
2021/11/23 04:17:09;;;;;;;30.30;19.70;;;4.60;92.60;;;;;;4841720;29;20508;-72
2021/11/23 04:19:37;;;;;;;30.55;19.17;;;4.50;92.60;;;;;;4840128;29;20097;-71
2021/11/23 04:22:06;;;;;;;31.83;20.90;;;4.60;92.60;;;;;;4841076;29;20053;-73
2021/11/23 04:24:34;;;;;;;33.10;20.10;;;4.60;92.50;;;;;;4840855;29;20046;-73
2021/11/23 04:27:02;;;;;;;32.83;22.00;;;4.70;92.50;;;;;;4841174;29;20058;-73
2021/11/23 04:29:30;;;;;;;29.40;20.35;;;4.70;92.50;;;;;;4824581;29;20054;-73
2021/11/23 04:31:57;;;;;;;31.02;21.23;;;4.70;92.50;;;;;;4841018;29;20061;-73
2021/11/23 04:34:29;;;;;;;30.67;21.30;;;4.80;92.50;;;;;;4823178;29;20314;-72
2021/11/23 04:36:57;;;;;;;30.67;20.35;;;4.70;92.50;;;;;;4830749;29;20125;-72
2021/11/23 04:39:24;;;;;;;30.33;21.23;;;4.80;92.50;;;;;;4841140;29;20069;-72
2021/11/23 04:41:52;;;;;;;38.88;22.02;;;4.80;92.40;;;;;;4840897;29;20054;-72
2021/11/23 04:44:19;;;;;;;39.65;22.67;;;4.80;92.40;;;;;;4824713;29;20492;-72
2021/11/23 04:46:47;;;;;;;31.90;21.95;;;4.80;92.50;;;;;;4840706;29;20722;-72
2021/11/23 04:49:14;;;;;;;35.58;22.63;;;4.90;92.50;;;;;;4840438;29;20060;-72
2021/11/23 04:51:42;;;;;;;34.35;22.08;;;5.00;92.60;;;;;;4824902;29;20049;-72
2021/11/23 04:54:10;;;;;;;38.97;22.77;;;5.00;92.50;;;;;;4840070;29;20065;-72
2021/11/23 04:56:38;;;;;;;34.10;22.20;;;5.00;92.50;;;;;;4840283;29;20401;-72
2021/11/23 04:59:05;;;;;;;35.72;21.42;;;5.10;92.60;;;;;;4839798;29;20050;-72
2021/11/23 05:01:33;;;;;;;31.23;19.40;;;5.30;92.50;;;;;;4840523;29;20056;-72
2021/11/23 05:04:01;;;;;;;31.70;18.95;;;5.30;92.50;;;;;;4824027;29;20250;-72
2021/11/23 05:06:30;;;;;;;31.65;20.27;;;5.30;92.50;;;;;;4840356;29;20058;-74
2021/11/23 05:08:57;;;;;;;30.23;19.20;;;5.30;92.40;;;;;;4839505;29;20485;-73
2021/11/23 05:11:27;;;;;;;25.27;18.58;;;5.40;92.40;;;;;;4840949;29;20068;-72
2021/11/23 05:13:58;;;;;;;31.50;18.98;;;5.40;92.40;;;;;;4809073;29;20059;-72
2021/11/23 05:16:25;;;;;;;29.95;18.70;;;5.40;92.40;;;;;;4840384;29;20515;-72
2021/11/23 05:18:53;;;;;;;22.63;16.58;;;5.50;92.40;;;;;;4840533;29;20054;-72
2021/11/23 05:21:21;;;;;;;28.40;17.20;;;5.50;92.40;;;;;;4839399;29;20084;-73
2021/11/23 05:23:48;;;;;;;26.77;16.13;;;5.50;92.40;;;;;;4839376;29;20408;-73
2021/11/23 05:26:16;;;;;;;25.92;14.35;;;5.50;92.30;;;;;;4839497;29;20489;-72
2021/11/23 05:28:43;;;;;;;22.63;13.32;;;5.60;92.30;;;;;;4808546;29;20412;-72
2021/11/23 05:31:11;;;;;;;20.40;13.00;;;5.60;92.30;;;;;;4840148;29;20050;-72
2021/11/23 05:33:38;;;;;;;24.40;13.23;;;5.60;92.20;;;;;;4839548;29;20046;-72
2021/11/23 05:36:06;;;;;;;21.13;13.20;;;5.60;92.20;;;;;;4823876;29;20050;-73
2021/11/23 05:38:34;;;;;;;21.33;12.50;;;5.60;92.20;;;;;;4840354;29;20070;-72
2021/11/23 05:41:01;;;;;;;23.65;13.40;;;5.60;92.20;;;;;;4823824;29;20393;-72
2021/11/23 05:43:31;;;;;;;23.95;13.35;;;5.60;92.20;;;;;;4840277;29;20327;-72
2021/11/23 05:45:59;;;;;;;23.15;13.48;;;5.50;92.20;;;;;;4838649;29;20050;-72
2021/11/23 05:48:26;;;;;;;25.52;13.75;;;5.50;92.20;;;;;;4840098;29;20061;-72
2021/11/23 05:50:54;;;;;;;21.58;14.32;;;5.60;92.20;;;;;;4838990;29;20061;-73
2021/11/23 05:53:22;;;;;;;22.90;14.98;;;5.50;92.20;;;;;;4823897;29;20424;-73
2021/11/23 05:55:49;;;;;;;27.77;15.63;;;5.60;92.20;;;;;;4823536;29;20513;-73
2021/11/23 05:58:17;;;;;;;26.65;15.68;;;5.60;92.20;;;;;;4840167;29;20054;-73
2021/11/23 06:00:44;;;;;;;27.83;15.75;;;5.70;92.30;;;;;;4818636;29;20501;-73
2021/11/23 06:03:12;;;;;;;23.85;15.50;;;5.60;92.20;;;;;;4815374;29;20258;-73
2021/11/23 06:05:39;;;;;;;22.08;14.93;;;5.60;92.20;;;;;;4840053;29;20049;-73
2021/11/23 06:08:07;;;;;;;29.35;16.88;;;5.70;92.20;;;;;;4839947;29;20052;-73
2021/11/23 06:10:35;;;;;;;30.85;18.67;;;5.70;92.30;;;;;;4839962;29;20251;-72
2021/11/23 06:13:05;;;;;;;33.08;20.00;;;5.70;92.30;;;;;;4858560;29;20057;-72
2021/11/23 06:15:33;;;;;;;33.67;19.77;;;5.70;92.30;;;;;;4852116;29;20054;-72
2021/11/23 06:18:02;;;;;;;37.88;20.35;;;5.80;92.30;;;;;;4839922;29;20520;-72
2021/11/23 06:20:30;;;;;;;34.28;19.42;;;5.80;92.30;;;;;;4838817;29;20065;-72
2021/11/23 06:23:02;;;;;;;35.42;19.80;;;5.80;92.30;;;;;;4839801;29;20046;-72
2021/11/23 06:25:30;;;;;;;32.97;20.60;;;5.90;92.40;;;;;;4835429;29;20043;-72
2021/11/23 06:27:58;;;;;;;30.42;18.45;;;5.90;92.40;;;;;;4821696;29;20059;-72
2021/11/23 06:30:26;;;;;;;35.33;20.88;;;5.90;92.40;;;;;;4822519;29;20049;-72
2021/11/23 06:32:53;;;;;;;34.70;20.63;;;6.00;92.40;;;;;;4839810;29;20404;-72
2021/11/23 06:35:24;;;;;;;38.75;21.65;;;6.00;92.40;;;;;;4823127;29;20061;-72
2021/11/23 06:37:51;;;;;;;33.45;19.23;;;6.00;92.40;;;;;;4839793;29;20076;-73
2021/11/23 06:40:19;;;;;;;35.75;19.85;;;6.00;92.40;;;;;;4815145;29;20058;-74
2021/11/23 06:42:46;;;;;;;30.95;18.77;;;6.00;92.40;;;;;;4805070;29;20066;-73
2021/11/23 06:45:14;;;;;;;31.55;18.95;;;6.10;92.40;;;;;;4833028;29;20069;-73
2021/11/23 06:47:42;;;;;;;28.30;16.90;;;6.10;92.40;;;;;;4841902;29;20061;-74
2021/11/23 06:50:09;;;;;;;28.55;16.98;;;6.10;92.40;;;;;;4842122;29;20061;-74
2021/11/23 06:52:37;;;;;;;33.25;17.63;;;6.20;92.50;;;;;;4841556;29;20424;-73
2021/11/23 06:55:06;;;;;;;32.83;17.77;;;6.20;92.50;;;;;;4841733;29;20516;-73
2021/11/23 06:57:34;;;;;;;28.30;18.23;;;6.20;92.40;;;;;;4838469;29;20068;-73
2021/11/23 07:00:04;;;;;;;32.00;17.25;;;6.30;92.40;;;;;;4834821;29;20484;-73
2021/11/23 07:02:32;;;;;;;27.50;16.88;;;6.30;92.40;;;;;;4822240;29;20519;-73
2021/11/23 07:05:00;;;;;;;24.25;17.30;;;6.30;92.40;;;;;;4848294;29;20061;-74
2021/11/23 07:07:28;;;;;;;33.17;17.10;;;6.30;92.40;;;;;;4836596;29;20056;-73
2021/11/23 07:09:55;;;;;;;30.73;16.73;;;6.30;92.40;;;;;;4825742;29;20039;-73
2021/11/23 07:12:23;;;;;;;29.60;17.77;;;6.30;92.40;;;;;;4844751;29;20315;-73
2021/11/23 07:14:50;;;;;;;34.83;19.98;;;6.40;92.40;;;;;;4846890;29;20050;-73
2021/11/23 07:17:18;;;;;;;32.17;17.83;;;6.40;92.40;;;;;;4841567;29;20066;-73
2021/11/23 07:19:46;;;;;;;24.10;16.60;;;6.40;92.40;;;;;;4825666;29;20065;-73
2021/11/23 07:22:14;;;;;;;28.55;16.92;;;6.40;92.40;;;;;;4841873;29;20061;-73
2021/11/23 07:24:41;;;;;;;24.35;16.48;;;6.40;92.40;;;;;;4841400;29;20535;-73
2021/11/23 07:27:09;;;;;;;24.90;15.80;;;6.50;92.50;;;;;;4831152;29;20054;-73
2021/11/23 07:29:37;;;;;;;26.67;16.10;;;6.50;92.50;;;;;;4840705;29;20057;-73
2021/11/23 07:32:07;;;;;;;29.38;16.00;;;6.50;92.50;;;;;;4838303;29;20053;-73
2021/11/23 07:34:36;;;;;;;31.35;16.75;;;6.60;92.40;;;;;;4823700;29;20038;-73
2021/11/23 07:37:03;;;;;;;21.90;15.48;;;6.60;92.40;;;;;;4823861;29;20066;-73
2021/11/23 07:39:31;;;;;;;29.67;15.43;;;6.60;92.30;;;;;;4823930;29;20054;-73
2021/11/23 07:41:58;;;;;;;27.17;13.93;;;6.60;92.30;;;;;;4836112;29;20106;-74
2021/11/23 07:44:26;;;;;;;26.90;15.80;;;6.70;92.30;;;;;;4807529;29;20061;-73
2021/11/23 07:46:54;;;;;;;23.10;15.73;;;6.70;92.30;;;;;;4823334;29;20066;-73
2021/11/23 07:49:21;;;;;;;28.98;14.82;;;6.70;92.30;;;;;;4841023;29;20045;-73
2021/11/23 07:51:49;;;;;;;29.50;16.00;;;6.70;92.30;;;;;;4827480;29;20054;-73
2021/11/23 07:54:17;;;;;;;27.38;16.20;;;6.70;92.30;;;;;;4840254;29;20488;-73
2021/11/23 07:56:44;;;;;;;26.73;13.63;;;6.70;92.30;;;;;;4840264;29;20058;-73
2021/11/23 07:59:12;;;;;;;26.95;15.40;;;6.70;92.30;;;;;;4841666;29;20054;-73
2021/11/23 08:01:40;;;;;;;28.33;13.73;;;6.70;92.30;;;;;;4841218;29;20070;-75
2021/11/23 08:04:08;;;;;;;28.30;14.38;;;6.70;92.20;;;;;;4841296;29;20065;-73
2021/11/23 08:06:36;;;;;;;18.98;11.68;;;6.70;92.20;;;;;;4844992;29;20532;-73
2021/11/23 08:09:05;;;;;;;21.60;12.60;;;6.70;92.20;;;;;;4843699;29;20053;-73
2021/11/23 08:11:32;;;;;;;20.92;12.45;;;6.70;92.20;;;;;;4845173;29;20068;-74
2021/11/23 08:14:00;;;;;;;23.83;12.13;;;6.80;92.20;;;;;;4840478;29;20050;-74
2021/11/23 08:16:28;;;;;;;19.60;11.52;;;6.80;92.10;;;;;;4821260;29;20468;-74
2021/11/23 08:18:56;;;;;;;16.50;11.57;;;6.80;92.10;;;;;;4840634;29;20054;-74
2021/11/23 08:21:25;;;;;;;17.65;9.48;;;6.80;92.10;;;;;;4840495;29;20057;-72
2021/11/23 08:23:53;;;;;;;18.25;8.80;;;6.90;92.00;;;;;;4839575;29;20054;-73
2021/11/23 08:26:23;;;;;;;22.42;9.63;;;7.00;92.00;;;;;;4824321;29;20433;-73
2021/11/23 08:28:51;;;;;;;15.82;8.75;;;7.00;91.90;;;;;;4839814;29;20424;-74
2021/11/23 08:31:18;;;;;;;11.50;7.63;;;7.00;91.80;;;;;;4840579;29;20398;-73
2021/11/23 08:33:46;;;;;;;11.73;7.05;;;7.00;91.80;;;;;;4841045;29;20054;-73
2021/11/23 08:36:14;;;;;;;13.95;7.25;;;7.00;91.70;;;;;;4841224;29;20046;-72
2021/11/23 08:38:42;;;;;;;11.48;6.82;;;7.00;91.70;;;;;;4841162;29;20054;-74
2021/11/23 08:41:11;;;;;;;12.48;5.65;;;7.00;91.70;;;;;;4841083;29;20412;-74
2021/11/23 08:43:39;;;;;;;7.10;5.50;;;7.10;91.70;;;;;;4840560;29;20050;-74
2021/11/23 08:46:07;;;;;;;8.40;4.65;;;7.10;91.60;;;;;;4840637;29;20259;-74
2021/11/23 08:48:35;;;;;;;7.13;4.30;;;7.20;91.50;;;;;;4840793;29;20503;-74
2021/11/23 08:51:05;;;;;;;7.85;4.05;;;7.20;91.40;;;;;;4841149;29;20045;-74
2021/11/23 08:53:33;;;;;;;6.85;4.32;;;7.30;91.30;;;;;;4824450;29;20038;-74
2021/11/23 08:56:01;;;;;;;5.30;3.88;;;7.30;91.20;;;;;;4824564;29;20061;-73
2021/11/23 08:58:28;;;;;;;9.43;3.92;;;7.30;91.10;;;;;;4840628;29;20069;-73
2021/11/23 09:00:57;;;;;;;6.88;3.80;;;7.40;91.00;;;;;;4840589;29;20499;-73
2021/11/23 09:03:25;;;;;;;4.40;3.53;;;7.40;90.90;;;;;;4824208;29;20058;-73
2021/11/23 09:05:53;;;;;;;6.90;3.72;;;7.50;90.90;;;;;;4840739;29;20050;-74
2021/11/23 09:08:20;;;;;;;11.45;3.78;;;7.50;90.80;;;;;;4840241;29;20050;-73
2021/11/23 09:10:49;;;;;;;5.03;3.50;;;7.50;90.80;;;;;;4840465;29;20046;-73
2021/11/23 09:13:16;;;;;;;7.88;3.30;;;7.60;90.70;;;;;;4840716;29;20453;-73
2021/11/23 09:15:44;;;;;;;8.02;3.55;;;7.60;90.60;;;;;;4840157;29;20061;-73
2021/11/23 09:18:11;;;;;;;5.93;2.75;;;7.60;90.50;;;;;;4840445;29;20049;-73
2021/11/23 09:20:39;;;;;;;11.98;2.95;;;7.70;90.40;;;;;;4823945;29;20159;-74
2021/11/23 09:23:11;;;;;;;6.05;3.15;;;7.70;90.30;;;;;;4842441;29;20405;-74
2021/11/23 09:25:41;;;;;;;5.90;2.90;;;7.70;90.20;;;;;;4850802;29;20057;-73
2021/11/23 09:28:13;;;;;;;5.57;2.67;;;7.80;90.00;;;;;;4818490;29;20305;-74
2021/11/23 09:30:45;;;;;;;8.60;3.17;;;7.80;89.90;;;;;;4846395;29;20492;-75
2021/11/23 09:33:15;;;;;;;8.50;3.35;;;7.80;89.80;;;;;;4847115;29;20065;-74
2021/11/23 09:35:44;;;;;;;4.03;2.90;;;7.80;89.70;;;;;;4842542;29;20405;-74
2021/11/23 09:38:11;;;;;;;5.03;2.58;;;7.80;89.60;;;;;;4839941;29;20054;-74
2021/11/23 09:40:40;;;;;;;13.45;2.83;;;7.90;89.40;;;;;;4839149;29;20057;-74
2021/11/23 09:43:09;;;;;;;5.43;2.58;;;7.90;89.30;;;;;;4839772;29;20061;-76
2021/11/23 09:45:38;;;;;;;6.43;2.50;;;7.90;89.10;;;;;;4850269;29;20054;-74
2021/11/23 09:48:07;;;;;;;5.45;2.35;;;7.90;89.10;;;;;;4838063;29;20092;-73
2021/11/23 09:50:42;;;;;;;4.97;3.30;;;8.00;88.90;;;;;;4807373;29;20045;-73
2021/11/23 09:53:10;;;;;;;7.32;3.35;;;8.00;88.90;;;;;;4838661;29;20500;-73
2021/11/23 09:55:39;;;;;;;7.28;3.22;;;8.00;88.90;;;;;;4822245;29;20519;-74
2021/11/23 09:58:10;;;;;;;17.08;4.72;;;8.00;88.80;;;;;;4821729;29;20065;-73
2021/11/23 10:00:45;;;;;;;11.65;4.18;;;8.00;88.60;;;;;;4838735;29;20263;-73
2021/11/23 10:03:30;;;;;;;15.10;4.68;;;8.10;88.60;;;;;;4838587;29;20124;-73
2021/11/23 10:06:14;;;;;;;6.00;3.08;;;8.10;88.60;;;;;;4822678;29;20058;-74
2021/11/23 10:08:44;;;;;;;5.30;3.03;;;8.20;88.50;;;;;;4838257;29;20092;-74
2021/11/23 10:11:29;;;;;;;7.68;3.10;;;8.20;88.50;;;;;;4838001;29;20413;-74
2021/11/23 10:14:03;;;;;;;6.35;2.80;;;8.30;88.40;;;;;;4838244;29;20065;-73
2021/11/23 10:16:57;;;;;;;4.60;2.47;;;8.30;88.30;;;;;;4837989;29;20057;-73
2021/11/23 10:19:36;;;;;;;8.30;2.35;;;8.30;88.30;;;;;;4820577;29;20054;-73
2021/11/23 10:22:04;;;;;;;5.03;1.90;;;8.30;88.10;;;;;;4840680;29;20065;-73
2021/11/23 10:24:36;;;;;;;4.10;2.00;;;8.30;87.90;;;;;;4841905;29;20042;-73
2021/11/23 10:27:17;;;;;;;7.15;1.90;;;8.30;87.80;;;;;;4824913;29;20073;-73
2021/11/23 10:29:50;;;;;;;6.80;2.03;;;8.30;87.80;;;;;;4823458;29;20228;-73
2021/11/23 10:32:18;;;;;;;2.13;1.60;;;8.30;87.70;;;;;;4823531;29;20067;-73
2021/11/23 10:34:47;;;;;;;8.93;1.90;;;8.40;87.80;;;;;;4823484;29;20053;-73
2021/11/23 10:37:31;;;;;;;5.20;1.95;;;8.40;87.70;;;;;;4823585;29;20077;-73
2021/11/23 10:40:13;;;;;;;7.82;2.33;;;8.40;87.60;;;;;;4839898;29;20050;-73
2021/11/23 10:42:43;;;;;;;3.67;2.10;;;8.40;87.50;;;;;;4841780;29;20524;-74
2021/11/23 10:45:11;;;;;;;5.60;1.77;;;8.40;87.50;;;;;;4841644;29;20057;-73
2021/11/23 10:47:41;;;;;;;7.38;2.50;;;8.40;87.40;;;;;;4839958;29;20061;-74
2021/11/23 10:50:11;;;;;;;3.90;2.13;;;8.40;87.30;;;;;;4834934;29;20401;-74
2021/11/23 10:52:48;;;;;;;4.22;2.10;;;8.30;87.30;;;;;;4829193;29;20129;-73
2021/11/23 10:55:22;;;;;;;6.45;2.10;;;8.30;87.20;;;;;;4836805;29;20057;-74
2021/11/23 10:57:51;;;;;;;4.72;2.30;;;8.30;87.20;;;;;;4817745;29;20381;-73
2021/11/23 11:00:20;;;;;;;4.40;2.80;;;8.30;87.20;;;;;;4838569;29;20062;-73
2021/11/23 11:02:50;;;;;;;4.95;2.33;;;8.30;87.20;;;;;;4817829;29;20058;-73
2021/11/23 11:05:21;;;;;;;6.40;2.80;;;8.40;87.30;;;;;;4832860;29;20049;-73
2021/11/23 11:07:48;;;;;;;5.63;2.65;;;8.50;87.20;;;;;;4832578;29;20050;-73
2021/11/23 11:10:16;;;;;;;10.20;2.50;;;8.50;87.00;;;;;;4822390;29;20512;-73
2021/11/23 11:12:44;;;;;;;4.38;2.45;;;8.60;87.00;;;;;;4837866;29;20054;-73
2021/11/23 11:15:14;;;;;;;6.82;2.88;;;8.60;86.90;;;;;;4800228;29;20042;-73
2021/11/23 11:17:46;;;;;;;7.38;2.63;;;8.70;86.80;;;;;;4831180;29;20405;-74
2021/11/23 11:20:52;;;;;;;9.98;2.65;;;8.70;86.90;;;;;;4832037;29;20070;-73
2021/11/23 11:23:45;;;;;;;6.97;2.13;;;8.80;86.90;;;;;;4840939;29;20054;-73
2021/11/23 11:26:25;;;;;;;6.53;2.28;;;8.90;86.50;;;;;;4838006;29;20041;-74
2021/11/23 11:28:58;;;;;;;6.47;2.53;;;8.90;86.10;;;;;;4832403;29;20042;-74
2021/11/23 11:31:26;;;;;;;;;;;9.00;86.10;;;;;;4837907;29;20405;-74
2021/11/23 11:34:16;;;;;;;3.03;2.15;;;9.00;85.90;;;;;;4830732;29;20408;-74
2021/11/23 11:36:46;;;;;;;4.20;2.15;;;9.00;85.70;;;;;;4832213;29;20046;-74
2021/11/23 11:39:53;;;;;;;4.45;1.70;;;9.20;85.70;;;;;;4814203;29;20056;-74
2021/11/23 11:42:20;;;;;;;4.40;1.70;;;9.20;85.20;;;;;;4782785;29;20143;-74
2021/11/23 11:44:51;;;;;;;2.97;1.80;;;9.20;85.20;;;;;;4782716;30;20405;-74
2021/11/23 11:47:32;;;;;;;5.75;1.95;;;9.30;85.10;;;;;;4753121;30;20070;-74
2021/11/23 11:50:08;;;;;;;3.25;1.63;;;9.20;85.00;;;;;;4783393;30;20055;-74
2021/11/23 11:52:56;;;;;;;6.32;1.67;;;9.30;85.10;;;;;;4783148;30;20059;-74
2021/11/23 11:55:30;;;;;;;9.63;1.70;;;9.30;84.60;;;;;;4783263;30;20067;-74
2021/11/23 11:58:00;;;;;;;5.70;1.60;;;9.20;84.40;;;;;;4783301;30;20058;-73
2021/11/23 12:00:31;;;;;;;3.08;1.25;;;9.20;84.50;;;;;;4784056;29;20066;-74
2021/11/23 12:03:08;;;;;;;2.42;1.05;;;9.20;84.60;;;;;;4798491;29;20403;-73
2021/11/23 12:05:58;;;;;;;4.15;1.00;;;9.20;84.60;;;;;;4784695;30;20070;-73
2021/11/23 12:08:33;;;;;;;2.60;0.82;;;9.30;84.50;;;;;;4782694;30;20508;-74
2021/11/23 12:11:06;;;;;;;2.40;1.02;;;9.30;84.20;;;;;;4768980;30;20074;-74
2021/11/23 12:13:52;;;;;;;2.08;0.82;;;9.30;84.20;;;;;;4784371;30;20058;-74
2021/11/23 12:16:37;;;;;;;1.02;0.70;;;9.30;84.00;;;;;;4807103;29;20058;-74
2021/11/23 12:19:49;;;;;;;6.38;1.20;;;9.30;83.70;;;;;;4816109;29;20054;-74
2021/11/23 12:22:26;;;;;;;3.78;1.38;;;9.30;83.80;;;;;;4830988;29;20532;-74
2021/11/23 12:25:00;;;;;;;6.63;1.20;;;9.40;83.80;;;;;;4798580;29;20042;-74
2021/11/23 12:27:33;;;;;;;5.60;1.25;;;9.40;83.50;;;;;;4840637;29;20519;-74
2021/11/23 12:30:02;;;;;;;3.28;1.33;;;9.30;83.50;;;;;;4839564;29;20496;-74
2021/11/23 12:32:35;;;;;;;3.88;1.25;;;9.30;83.60;;;;;;4835216;29;20061;-74
2021/11/23 12:35:05;;;;;;;;;;;9.30;83.80;;;;;;4831297;29;20049;-74
2021/11/23 12:37:35;;;;;;;3.85;0.98;;;9.30;83.70;;;;;;4813561;29;19929;-74
2021/11/23 12:40:14;;;;;;;5.18;0.93;;;9.30;83.60;;;;;;4831646;29;20424;-74
2021/11/23 12:42:51;;;;;;;1.70;0.77;;;9.30;83.60;;;;;;4831088;29;20057;-74
2021/11/23 12:45:41;;;;;;;2.53;0.95;;;9.30;83.60;;;;;;4831408;29;20053;-74
2021/11/23 12:48:12;;;;;;;4.18;1.10;;;9.30;83.70;;;;;;4819925;29;20069;-74
2021/11/23 12:50:40;;;;;;;5.50;1.10;;;9.30;83.70;;;;;;4831545;29;20519;-74
2021/11/23 12:53:15;;;;;;;3.10;1.50;;;9.30;83.80;;;;;;4832297;29;20374;-75
2021/11/23 12:55:51;;;;;;;2.78;1.02;;;9.30;83.90;;;;;;4831121;29;20064;-73
2021/11/23 12:58:18;;;;;;;9.70;1.50;;;9.30;83.80;;;;;;4832157;29;20528;-75